createdAt,value
2022-09-18T00:01:34.869Z,98365.84
2022-09-18T00:04:04.952Z,98376.63
2022-09-18T00:06:37.365Z,98373.84
2022-09-18T00:09:07.081Z,98380.22
2022-09-18T00:11:39.610Z,98382.03
2022-09-18T00:14:08.752Z,98374.66
2022-09-18T00:16:35.809Z,98384.63
2022-09-18T00:19:07.919Z,98378.25
2022-09-18T00:21:37.320Z,98382.22
2022-09-18T00:24:05.087Z,98384.81
2022-09-18T00:26:32.032Z,98382.84
2022-09-18T00:29:02.616Z,98385.81
2022-09-18T00:31:36.512Z,98398.00
2022-09-18T00:34:16.205Z,98390.00
2022-09-18T00:36:43.112Z,98396.00
2022-09-18T00:39:11.088Z,98395.59
2022-09-18T00:41:41.007Z,98395.59
2022-09-18T00:44:45.822Z,98396.19
2022-09-18T00:47:15.289Z,98384.63
2022-09-18T00:49:51.066Z,98386.41
2022-09-18T00:52:22.957Z,98388.81
2022-09-18T00:54:55.812Z,98387.00
2022-09-18T00:57:33.709Z,98387.59
2022-09-18T01:00:04.270Z,98384.22
2022-09-18T01:02:31.041Z,98390.00
2022-09-18T01:04:57.789Z,98379.63
2022-09-18T01:07:48.987Z,98385.41
2022-09-18T01:10:34.240Z,98375.44
2022-09-18T01:13:12.830Z,98382.03
2022-09-18T01:16:16.097Z,98376.00
2022-09-18T01:19:09.236Z,98382.41
2022-09-18T01:21:43.297Z,98380.59
2022-09-18T01:24:18.901Z,98379.19
2022-09-18T01:26:56.765Z,98382.78
2022-09-18T01:29:39.305Z,98374.38
2022-09-18T01:32:18.705Z,98381.38
2022-09-18T01:34:52.534Z,98382.97
2022-09-18T01:37:41.016Z,98383.16
2022-09-18T01:40:17.900Z,98380.38
2022-09-18T01:42:48.456Z,98386.34
2022-09-18T01:45:21.004Z,98393.34
2022-09-18T01:47:56.300Z,98389.75
2022-09-18T01:50:27.214Z,98395.31
2022-09-18T01:53:28.004Z,98399.31
2022-09-18T01:56:06.192Z,98382.94
2022-09-18T01:58:36.066Z,98395.50
2022-09-18T02:01:09.129Z,98388.69
2022-09-18T02:03:41.291Z,98386.91
2022-09-18T02:06:20.216Z,98388.50
2022-09-18T02:08:55.578Z,98395.88
2022-09-18T02:11:23.618Z,98390.72
2022-09-18T02:13:52.614Z,98395.69
2022-09-18T02:16:30.167Z,98395.09
2022-09-18T02:18:58.235Z,98395.47
2022-09-18T02:21:28.749Z,98394.66
2022-09-18T02:24:03.524Z,98388.47
2022-09-18T02:26:35.483Z,98383.28
2022-09-18T02:29:03.567Z,98378.66
2022-09-18T02:31:31.157Z,98367.28
2022-09-18T02:33:57.869Z,98367.50
2022-09-18T02:36:35.932Z,98377.09
2022-09-18T02:39:31.367Z,98376.28
2022-09-18T02:42:19.586Z,98384.47
2022-09-18T02:45:11.139Z,98394.28
2022-09-18T02:47:40.564Z,98385.06
2022-09-18T02:50:13.351Z,98388.88
2022-09-18T02:53:04.399Z,98378.91
2022-09-18T02:55:44.310Z,98376.28
2022-09-18T02:58:43.176Z,98377.50
2022-09-18T03:01:16.518Z,98370.91
2022-09-18T03:03:43.832Z,98374.31
2022-09-18T03:06:15.727Z,98376.69
2022-09-18T03:08:42.550Z,98376.53
2022-09-18T03:11:11.111Z,98386.09
2022-09-18T03:13:40.705Z,98385.06
2022-09-18T03:16:07.719Z,98376.88
2022-09-18T03:18:38.361Z,98375.47
2022-09-18T03:21:18.650Z,98376.44
2022-09-18T03:23:45.791Z,98375.66
2022-09-18T03:26:12.672Z,98387.59
2022-09-18T03:28:39.297Z,98386.41
2022-09-18T03:31:09.026Z,98381.81
2022-09-18T03:33:38.602Z,98379.22
2022-09-18T03:36:09.101Z,98382.59
2022-09-18T03:38:41.059Z,98387.59
2022-09-18T03:41:07.868Z,98377.59
2022-09-18T03:43:35.248Z,98378.56
2022-09-18T03:46:02.060Z,98383.56
2022-09-18T03:48:28.981Z,98389.38
2022-09-18T03:50:55.735Z,98380.31
2022-09-18T03:53:22.327Z,98380.75
2022-09-18T03:55:50.442Z,98384.13
2022-09-18T03:58:20.036Z,98385.31
2022-09-18T04:00:46.947Z,98387.13
2022-09-18T04:03:13.650Z,98377.31
2022-09-18T04:05:40.542Z,98381.09
2022-09-18T04:08:07.099Z,98379.91
2022-09-18T04:10:33.768Z,98373.88
2022-09-18T04:13:00.536Z,98376.75
2022-09-18T04:15:27.218Z,98376.16
2022-09-18T04:17:53.825Z,98377.72
2022-09-18T04:20:20.392Z,98383.50
2022-09-18T04:22:46.994Z,98374.53
2022-09-18T04:25:13.931Z,98383.75
2022-09-18T04:27:40.565Z,98379.16
2022-09-18T04:30:07.691Z,98382.97
2022-09-18T04:32:34.196Z,98382.31
2022-09-18T04:35:00.894Z,98390.34
2022-09-18T04:37:31.245Z,98387.56
2022-09-18T04:39:57.828Z,98383.78
2022-09-18T04:42:27.152Z,98401.59
2022-09-18T04:44:53.796Z,98394.75
2022-09-18T04:47:20.349Z,98398.13
2022-09-18T04:49:46.905Z,98397.13
2022-09-18T04:52:13.501Z,98392.94
2022-09-18T04:54:40.289Z,98391.75
2022-09-18T04:57:06.998Z,98387.97
2022-09-18T04:59:35.763Z,98400.97
2022-09-18T05:02:06.860Z,98395.41
2022-09-18T05:04:35.724Z,98401.00
2022-09-18T05:07:03.315Z,98394.81
2022-09-18T05:09:29.718Z,98395.56
2022-09-18T05:11:57.254Z,98400.38
2022-09-18T05:14:23.816Z,98415.13
2022-09-18T05:16:50.256Z,98404.38
2022-09-18T05:19:16.684Z,98398.34
2022-09-18T05:21:43.174Z,98402.50
2022-09-18T05:24:09.738Z,98406.69
2022-09-18T05:26:36.281Z,98402.31
2022-09-18T05:29:02.819Z,98400.44
2022-09-18T05:31:29.353Z,98405.81
2022-09-18T05:33:55.983Z,98406.00
2022-09-18T05:36:22.419Z,98393.94
2022-09-18T05:38:48.864Z,98394.34
2022-09-18T05:41:15.247Z,98395.53
2022-09-18T05:43:44.977Z,98406.28
2022-09-18T05:46:11.900Z,98414.25
2022-09-18T05:48:38.369Z,98409.53
2022-09-18T05:51:08.023Z,98402.91
2022-09-18T05:53:34.997Z,98410.94
2022-09-18T05:56:01.702Z,98408.72
2022-09-18T05:58:28.181Z,98407.81
2022-09-18T06:00:58.658Z,98421.19
2022-09-18T06:03:25.327Z,98410.41
2022-09-18T06:05:53.718Z,98410.22
2022-09-18T06:08:21.094Z,98419.41
2022-09-18T06:10:47.568Z,98414.25
2022-09-18T06:13:16.830Z,98402.00
2022-09-18T06:15:48.228Z,98415.38
2022-09-18T06:18:15.593Z,98418.03
2022-09-18T06:20:43.020Z,98412.06
2022-09-18T06:23:11.099Z,98413.25
2022-09-18T06:25:37.767Z,98421.88
2022-09-18T06:28:06.452Z,98414.09
2022-09-18T06:30:34.774Z,98418.22
2022-09-18T06:33:03.402Z,98409.44
2022-09-18T06:35:29.911Z,98427.25
2022-09-18T06:38:00.448Z,98412.41
2022-09-18T06:40:27.167Z,98418.81
2022-09-18T06:42:58.327Z,98410.84
2022-09-18T06:45:26.118Z,98413.63
2022-09-18T06:47:56.030Z,98412.59
2022-09-18T06:50:24.035Z,98419.16
2022-09-18T06:52:52.462Z,98423.34
2022-09-18T06:55:19.194Z,98429.94
2022-09-18T06:57:59.040Z,98434.41
2022-09-18T07:00:28.324Z,98428.59
2022-09-18T07:03:02.521Z,98435.38
2022-09-18T07:05:31.573Z,98433.81
2022-09-18T07:07:58.715Z,98428.59
2022-09-18T07:10:25.958Z,98436.78
2022-09-18T07:12:57.349Z,98433.34
2022-09-18T07:15:27.576Z,98443.41
2022-09-18T07:18:02.741Z,98432.78
2022-09-18T07:20:29.712Z,98434.41
2022-09-18T07:22:58.548Z,98435.44
2022-09-18T07:25:35.838Z,98448.81
2022-09-18T07:28:08.125Z,98453.41
2022-09-18T07:30:37.321Z,98445.97
2022-09-18T07:33:05.721Z,98447.78
2022-09-18T07:35:32.965Z,98449.19
2022-09-18T07:38:00.177Z,98448.00
2022-09-18T07:40:27.550Z,98454.22
2022-09-18T07:43:07.348Z,98457.41
2022-09-18T07:45:35.156Z,98454.22
2022-09-18T07:48:05.969Z,98460.41
2022-09-18T07:50:33.054Z,98459.38
2022-09-18T07:53:02.169Z,98459.59
2022-09-18T07:55:28.795Z,98450.75
2022-09-18T07:58:04.491Z,98455.94
2022-09-18T08:00:35.105Z,98456.19
2022-09-18T08:03:03.188Z,98451.97
2022-09-18T08:05:30.113Z,98456.41
2022-09-18T08:07:56.643Z,98451.81
2022-09-18T08:10:23.048Z,98457.03
2022-09-18T08:12:53.747Z,98458.06
2022-09-18T08:15:20.497Z,98458.44
2022-09-18T08:17:47.230Z,98462.03
2022-09-18T08:20:14.505Z,98462.03
2022-09-18T08:22:41.668Z,98468.81
2022-09-18T08:25:09.044Z,98463.63
2022-09-18T08:27:36.686Z,98461.94
2022-09-18T08:30:03.525Z,98464.53
2022-09-18T08:32:29.869Z,98463.91
2022-09-18T08:35:02.057Z,98469.31
2022-09-18T08:37:29.753Z,98459.78
2022-09-18T08:39:59.390Z,98459.00
2022-09-18T08:43:01.225Z,98460.06
2022-09-18T08:45:41.986Z,98461.06
2022-09-18T08:48:14.286Z,98457.06
2022-09-18T08:50:46.439Z,98458.28
2022-09-18T08:53:23.115Z,98453.28
2022-09-18T08:55:51.871Z,98458.22
2022-09-18T08:58:37.975Z,98449.47
2022-09-18T09:01:17.020Z,98450.19
2022-09-18T09:03:55.411Z,98450.59
2022-09-18T09:06:59.244Z,98448.91
2022-09-18T09:09:48.883Z,98455.09
2022-09-18T09:12:55.536Z,98455.81
2022-09-18T09:15:45.399Z,98458.50
2022-09-18T09:18:17.945Z,98459.38
2022-09-18T09:20:51.924Z,98459.19
2022-09-18T09:23:42.607Z,98448.34
2022-09-18T09:26:19.739Z,98451.06
2022-09-18T09:29:10.955Z,98457.59
2022-09-18T09:31:42.656Z,98450.66
2022-09-18T09:34:24.488Z,98459.34
2022-09-18T09:36:54.151Z,98454.41
2022-09-18T09:39:25.982Z,98450.16
2022-09-18T09:42:15.254Z,98450.94
2022-09-18T09:44:59.730Z,98446.53
2022-09-18T09:47:43.201Z,98451.75
2022-09-18T09:50:33.034Z,98454.50
2022-09-18T09:53:03.948Z,98453.19
2022-09-18T09:55:44.372Z,98442.75
2022-09-18T09:58:34.637Z,98457.75
2022-09-18T10:01:10.231Z,98445.25
2022-09-18T10:03:53.322Z,98452.91
2022-09-18T10:06:43.259Z,98445.91
2022-09-18T10:09:36.970Z,98445.03
2022-09-18T10:12:29.559Z,98441.63
2022-09-18T10:15:06.764Z,98446.09
2022-09-18T10:17:38.501Z,98447.72
2022-09-18T10:20:06.189Z,98445.66
2022-09-18T10:22:34.845Z,98445.16
2022-09-18T10:25:14.177Z,98443.44
2022-09-18T10:27:40.725Z,98452.25
2022-09-18T10:30:12.696Z,98436.66
2022-09-18T10:32:43.398Z,98438.00
2022-09-18T10:35:29.708Z,98433.84
2022-09-18T10:37:57.130Z,98434.91
2022-09-18T10:40:37.228Z,98435.44
2022-09-18T10:43:04.787Z,98431.72
2022-09-18T10:45:40.184Z,98425.91
2022-09-18T10:48:15.889Z,98428.16
2022-09-18T10:51:01.211Z,98419.78
2022-09-18T10:53:33.011Z,98428.25
2022-09-18T10:56:16.139Z,98433.19
2022-09-18T10:58:43.147Z,98429.56
2022-09-18T11:01:11.178Z,98432.59
2022-09-18T11:03:39.510Z,98441.06
2022-09-18T11:06:24.736Z,98439.94
2022-09-18T11:09:00.262Z,98441.16
2022-09-18T11:11:28.003Z,98441.28
2022-09-18T11:13:57.492Z,98443.00
2022-09-18T11:16:27.488Z,98430.03
2022-09-18T11:19:07.912Z,98430.78
2022-09-18T11:21:43.492Z,98423.69
2022-09-18T11:24:18.035Z,98419.41
2022-09-18T11:26:58.350Z,98417.59
2022-09-18T11:29:31.015Z,98414.22
2022-09-18T11:32:18.923Z,98418.09
2022-09-18T11:34:51.042Z,98414.69
2022-09-18T11:37:47.124Z,98412.91
2022-09-18T11:40:31.447Z,98413.81
2022-09-18T11:42:59.183Z,98407.66
2022-09-18T11:45:45.975Z,98399.09
2022-09-18T11:48:50.686Z,98410.97
2022-09-18T11:51:26.693Z,98395.06
2022-09-18T11:54:04.386Z,98386.72
2022-09-18T11:56:55.177Z,98402.63
2022-09-18T11:59:21.464Z,98397.75
2022-09-18T12:01:55.026Z,98391.13
2022-09-18T12:04:36.301Z,98387.84
2022-09-18T12:07:37.850Z,98386.78
2022-09-18T12:10:48.036Z,98383.44
2022-09-18T12:13:45.297Z,98377.16
2022-09-18T12:16:36.600Z,98367.38
2022-09-18T12:19:16.753Z,98373.56
2022-09-18T12:21:54.608Z,98375.81
2022-09-18T12:24:21.272Z,98372.09
2022-09-18T12:27:15.371Z,98354.22
2022-09-18T12:30:22.786Z,98352.13
2022-09-18T12:33:34.068Z,98359.09
2022-09-18T12:36:03.535Z,98349.66
2022-09-18T12:38:44.912Z,98351.03
2022-09-18T12:41:25.899Z,98344.13
2022-09-18T12:44:06.114Z,98345.50
2022-09-18T12:46:39.159Z,98340.41
2022-09-18T12:49:25.735Z,98333.34
2022-09-18T12:52:55.405Z,98337.47
2022-09-18T12:55:46.760Z,98338.38
2022-09-18T12:58:37.821Z,98339.38
2022-09-18T13:01:15.748Z,98329.50
2022-09-18T13:03:44.004Z,98332.47
2022-09-18T13:06:19.895Z,98332.94
2022-09-18T13:08:54.803Z,98337.25
2022-09-18T13:11:38.870Z,98336.59
2022-09-18T13:14:05.337Z,98336.94
2022-09-18T13:16:54.716Z,98327.94
2022-09-18T13:19:28.383Z,98325.78
2022-09-18T13:21:57.575Z,98325.13
2022-09-18T13:24:29.055Z,98323.97
2022-09-18T13:26:57.500Z,98324.88
2022-09-18T13:30:22.799Z,98319.53
2022-09-18T13:32:49.311Z,98317.97
2022-09-18T13:35:25.310Z,98319.41
2022-09-18T13:38:12.326Z,98329.38
2022-09-18T13:41:02.420Z,98328.38
2022-09-18T13:43:28.899Z,98323.38
2022-09-18T13:45:58.847Z,98325.88
2022-09-18T13:48:56.544Z,98336.28
2022-09-18T13:51:31.440Z,98327.22
2022-09-18T13:54:14.751Z,98316.97
2022-09-18T13:57:10.488Z,98315.72
2022-09-18T13:59:48.801Z,98312.09
2022-09-18T14:02:32.730Z,98318.22
2022-09-18T14:05:02.316Z,98317.69
2022-09-18T14:07:31.952Z,98311.56
2022-09-18T14:10:19.987Z,98317.03
2022-09-18T14:13:04.705Z,98308.97
2022-09-18T14:15:31.778Z,98315.56
2022-09-18T14:18:14.916Z,98313.59
2022-09-18T14:20:48.796Z,98318.81
2022-09-18T14:23:45.442Z,98304.41
2022-09-18T14:26:30.894Z,98298.41
2022-09-18T14:29:06.327Z,98305.91
2022-09-18T14:31:37.600Z,98316.41
2022-09-18T14:34:31.335Z,98311.41
2022-09-18T14:37:19.437Z,98303.31
2022-09-18T14:39:46.481Z,98318.84
2022-09-18T14:42:49.115Z,98316.56
2022-09-18T14:45:31.322Z,98323.59
2022-09-18T14:47:58.890Z,98321.88
2022-09-18T14:50:30.870Z,98311.13
2022-09-18T14:53:00.038Z,98317.28
2022-09-18T14:55:40.899Z,98313.16
2022-09-18T14:58:12.291Z,98319.69
2022-09-18T15:00:39.278Z,98325.75
2022-09-18T15:03:29.090Z,98331.69
2022-09-18T15:06:05.380Z,98335.00
2022-09-18T15:08:32.193Z,98325.22
2022-09-18T15:11:05.781Z,98333.03
2022-09-18T15:13:36.602Z,98336.50
2022-09-18T15:16:04.428Z,98325.00
2022-09-18T15:18:40.959Z,98329.09
2022-09-18T15:21:32.285Z,98331.94
2022-09-18T15:24:02.290Z,98319.50
2022-09-18T15:26:38.890Z,98318.13
2022-09-18T15:29:14.077Z,98309.94
2022-09-18T15:31:40.651Z,98305.13
2022-09-18T15:34:17.552Z,98313.50
2022-09-18T15:36:44.539Z,98310.34
2022-09-18T15:39:28.828Z,98317.97
2022-09-18T15:41:57.059Z,98311.59
2022-09-18T15:44:38.806Z,98308.22
2022-09-18T15:47:32.948Z,98305.59
2022-09-18T15:50:12.439Z,98302.81
2022-09-18T15:52:55.050Z,98314.59
2022-09-18T15:55:23.450Z,98307.63
2022-09-18T15:57:52.501Z,98313.25
2022-09-18T16:00:21.204Z,98318.69
2022-09-18T16:02:58.785Z,98313.69
2022-09-18T16:05:27.198Z,98311.88
2022-09-18T16:08:02.877Z,98304.50
2022-09-18T16:10:35.465Z,98302.91
2022-09-18T16:13:03.980Z,98302.69
2022-09-18T16:15:30.859Z,98301.09
2022-09-18T16:18:04.852Z,98296.53
2022-09-18T16:20:38.208Z,98303.91
2022-09-18T16:23:35.287Z,98297.91
2022-09-18T16:26:10.406Z,98292.13
2022-09-18T16:28:42.915Z,98293.34
2022-09-18T16:31:12.335Z,98290.75
2022-09-18T16:34:09.906Z,98284.56
2022-09-18T16:36:38.987Z,98285.69
2022-09-18T16:39:13.572Z,98281.16
2022-09-18T16:41:40.808Z,98281.59
2022-09-18T16:44:10.846Z,98278.41
2022-09-18T16:46:40.366Z,98283.81
2022-09-18T16:49:08.921Z,98274.16
2022-09-18T16:51:36.220Z,98285.41
2022-09-18T16:54:02.726Z,98275.22
2022-09-18T16:56:33.692Z,98276.22
2022-09-18T16:59:03.120Z,98279.03
2022-09-18T17:01:53.892Z,98283.22
2022-09-18T17:04:21.987Z,98273.25
2022-09-18T17:06:52.031Z,98274.34
2022-09-18T17:09:18.636Z,98271.53
2022-09-18T17:11:45.185Z,98272.19
2022-09-18T17:14:11.580Z,98268.44
2022-09-18T17:16:44.707Z,98263.44
2022-09-18T17:19:12.037Z,98270.00
2022-09-18T17:21:39.563Z,98268.63
2022-09-18T17:24:06.463Z,98271.03
2022-09-18T17:26:35.190Z,98262.41
2022-09-18T17:29:03.930Z,98259.81
2022-09-18T17:31:30.449Z,98272.44
2022-09-18T17:34:00.840Z,98261.47
2022-09-18T17:36:27.462Z,98257.88
2022-09-18T17:38:53.967Z,98263.00
2022-09-18T17:41:20.788Z,98266.19
2022-09-18T17:43:54.209Z,98264.59
2022-09-18T17:46:21.322Z,98268.03
2022-09-18T17:48:48.148Z,98268.28
2022-09-18T17:51:18.365Z,98270.28
2022-09-18T17:53:48.057Z,98277.28
2022-09-18T17:56:21.752Z,98272.09
2022-09-18T17:58:48.428Z,98270.88
2022-09-18T18:01:20.166Z,98268.69
2022-09-18T18:03:48.430Z,98275.69
2022-09-18T18:06:19.866Z,98265.94
2022-09-18T18:08:48.950Z,98270.75
2022-09-18T18:11:18.280Z,98269.59
2022-09-18T18:13:46.590Z,98269.00
2022-09-18T18:16:23.377Z,98269.44
2022-09-18T18:18:55.763Z,98269.59
2022-09-18T18:21:25.371Z,98266.63
2022-09-18T18:23:58.599Z,98275.06
2022-09-18T18:26:27.907Z,98272.66
2022-09-18T18:28:55.520Z,98281.28
2022-09-18T18:31:25.369Z,98280.44
2022-09-18T18:33:54.208Z,98280.44
2022-09-18T18:36:27.673Z,98283.88
2022-09-18T18:38:57.402Z,98284.84
2022-09-18T18:41:25.839Z,98279.66
2022-09-18T18:43:55.398Z,98270.28
2022-09-18T18:46:27.037Z,98276.28
2022-09-18T18:49:01.790Z,98270.47
2022-09-18T18:51:31.891Z,98277.13
2022-09-18T18:54:02.832Z,98269.91
2022-09-18T18:56:36.325Z,98283.91
2022-09-18T18:59:04.241Z,98286.75
2022-09-18T19:01:31.960Z,98289.16
2022-09-18T19:04:06.630Z,98293.66
2022-09-18T19:06:38.824Z,98291.06
2022-09-18T19:09:10.210Z,98278.31
2022-09-18T19:11:48.157Z,98287.50
2022-09-18T19:14:19.054Z,98277.97
2022-09-18T19:16:46.785Z,98276.94
2022-09-18T19:19:15.652Z,98270.38
2022-09-18T19:21:42.705Z,98267.22
2022-09-18T19:24:10.778Z,98272.22
2022-09-18T19:26:39.067Z,98265.41
2022-09-18T19:29:09.045Z,98271.22
2022-09-18T19:31:38.166Z,98264.03
2022-09-18T19:34:05.913Z,98258.69
2022-09-18T19:36:33.253Z,98262.28
2022-09-18T19:39:05.283Z,98257.69
2022-09-18T19:41:56.014Z,98270.84
2022-09-18T19:44:46.317Z,98255.69
2022-09-18T19:47:28.965Z,98251.28
2022-09-18T19:49:57.683Z,98262.50
2022-09-18T19:52:27.320Z,98252.72
2022-09-18T19:54:54.662Z,98265.91
2022-09-18T19:57:24.208Z,98303.75
2022-09-18T19:59:54.284Z,98301.22
2022-09-18T20:02:21.904Z,98299.34
2022-09-18T20:04:48.465Z,98302.38
2022-09-18T20:07:15.174Z,98297.84
2022-09-18T20:09:41.665Z,98305.63
2022-09-18T20:12:09.326Z,98303.81
2022-09-18T20:14:35.967Z,98309.22
2022-09-18T20:17:02.792Z,98311.84
2022-09-18T20:19:29.234Z,98302.88
2022-09-18T20:22:03.568Z,98313.22
2022-09-18T20:24:30.608Z,98306.81
2022-09-18T20:26:58.478Z,98305.44
2022-09-18T20:29:27.264Z,98302.06
2022-09-18T20:31:53.977Z,98307.25
2022-09-18T20:34:24.685Z,98303.63
2022-09-18T20:36:54.722Z,98306.03
2022-09-18T20:39:21.672Z,98306.81
2022-09-18T20:41:48.646Z,98305.06
2022-09-18T20:44:15.492Z,98316.00
2022-09-18T20:46:42.889Z,98312.63
2022-09-18T20:49:11.228Z,98303.66
2022-09-18T20:51:37.756Z,98303.84
2022-09-18T20:54:08.110Z,98300.88
2022-09-18T20:56:36.569Z,98302.47
2022-09-18T20:59:05.052Z,98308.03
2022-09-18T21:01:35.393Z,98309.63
2022-09-18T21:04:02.836Z,98304.06
2022-09-18T21:06:33.269Z,98303.84
2022-09-18T21:09:09.586Z,98310.84
2022-09-18T21:11:38.815Z,98308.84
2022-09-18T21:14:08.220Z,98315.59
2022-09-18T21:16:40.377Z,98318.41
2022-09-18T21:19:07.037Z,98320.00
2022-09-18T21:21:34.119Z,98324.38
2022-09-18T21:24:01.993Z,98328.75
2022-09-18T21:26:35.444Z,98324.19
2022-09-18T21:29:08.534Z,98330.16
2022-09-18T21:31:39.209Z,98329.97
2022-09-18T21:34:05.824Z,98322.19
2022-09-18T21:36:38.371Z,98323.38
2022-09-18T21:39:09.180Z,98310.41
2022-09-18T21:41:39.494Z,98316.41
2022-09-18T21:44:08.775Z,98320.78
2022-09-18T21:46:37.692Z,98315.22
2022-09-18T21:49:08.806Z,98314.81
2022-09-18T21:51:36.811Z,98313.41
2022-09-18T21:54:05.674Z,98315.78
2022-09-18T21:56:33.235Z,98310.81
2022-09-18T21:58:59.993Z,98315.81
2022-09-18T22:01:32.115Z,98312.59
2022-09-18T22:04:02.105Z,98302.63
2022-09-18T22:06:31.312Z,98301.44
2022-09-18T22:08:59.752Z,98310.81
2022-09-18T22:11:28.812Z,98317.38
2022-09-18T22:14:00.603Z,98303.81
2022-09-18T22:16:29.440Z,98296.84
2022-09-18T22:18:56.592Z,98287.88
2022-09-18T22:21:32.658Z,98277.75
2022-09-18T22:24:06.288Z,98294.47
2022-09-18T22:26:36.170Z,98286.50
2022-09-18T22:29:06.713Z,98289.25
2022-09-18T22:31:37.013Z,98290.88
2022-09-18T22:34:04.250Z,98305.22
2022-09-18T22:36:30.778Z,98316.78
2022-09-18T22:38:57.356Z,98316.34
2022-09-18T22:41:24.169Z,98312.41
2022-09-18T22:43:55.651Z,98319.78
2022-09-18T22:46:24.582Z,98302.63
2022-09-18T22:48:51.822Z,98303.81
2022-09-18T22:51:20.744Z,98318.13
2022-09-18T22:53:52.419Z,98311.75
2022-09-18T22:56:20.646Z,98301.56
2022-09-18T22:58:47.643Z,98306.94
2022-09-18T23:01:19.964Z,98297.53
2022-09-18T23:03:49.119Z,98310.50
2022-09-18T23:06:17.104Z,98318.69
2022-09-18T23:08:44.844Z,98316.44
2022-09-18T23:11:17.040Z,98312.63
2022-09-18T23:13:49.398Z,98325.97
2022-09-18T23:16:16.343Z,98317.34
2022-09-18T23:18:51.200Z,98308.78
2022-09-18T23:21:17.930Z,98322.28
2022-09-18T23:23:46.863Z,98329.25
2022-09-18T23:26:19.374Z,98331.66
2022-09-18T23:28:47.464Z,98331.28
2022-09-18T23:31:16.844Z,98321.91
2022-09-18T23:33:48.425Z,98323.06
2022-09-18T23:36:20.119Z,98322.50
2022-09-18T23:38:47.663Z,98330.47
2022-09-18T23:41:16.393Z,98331.22
2022-09-18T23:43:49.559Z,98340.72
2022-09-18T23:46:16.781Z,98336.91
2022-09-18T23:48:44.142Z,98331.13
2022-09-18T23:51:12.201Z,98335.88
2022-09-18T23:53:40.111Z,98345.41
2022-09-18T23:56:10.638Z,98343.03
2022-09-18T23:58:38.675Z,98338.03
